Chicago O'Hare Intl Information

FAA: ORD - ICAO: KORD

Chicago O'Hare Intl (Airport) Location

State Illinois
County Cook
City Chicago
Chicago O'Hare Intl (Airport) is 14 miles northwest of Chicago, IL.
Latitude 41-58-28.2790N
Longitude 087-54-23.7500W
Elevation 680ft

Chicago O'Hare Intl METARs

METAR KORD 171951Z 08011KT 10SM -RA BKN130 OVC250 17/03 A3006 RMK AO2 RAB47 SLP178 P0000 T01720028
Altimeter 30.06"
Temperature 17.2°C (63.0°F)
Wind 80° at 11KT
Clouds broken at 13,000ft overcast at 25,000ft
Visibility 10.0mi
Time observed: 2022-05-17T19:51:00Z

Chicago O'Hare Intl (Airport) Details

Status Operational
Activation February 1944
Ownership Public
Usage Public
Chart CHICAGO
ATC on-site Yes
Beacon schedule sunset-sunrise
Beacon color clear green

Chicago O'Hare Intl (Airport) Contacts

Owner CITY OF CHICAGO
Owner address P.O. BOX 66142, 10510 WEST ZEMKE RO, 10510 WEST ZEMKE RO, CHICAGO, IL 60666
Owner phone 773-686-2200
Manager PAT CARR, DIR EMER MGMT
Manager address 17355 S. 68TH CT, TINLEY PARK, IL 60477
Manager phone 708-444-5601

Chicago O'Hare Intl Radio Frequencies

Chicago O'Hare Intl (Airport) Radio Frequencies

UNICOM 122.95
Common traffic advisory frequency (CTAF) N/A